Time;durP1;ratioP1;P1;durP2;ratioP2;P2;SDS_P1;SDS_P2;PMS_P1;PMS_P2;Temp;Humidity;BMP_temperature;BMP_pressure;BME280_temperature;BME280_humidity;BME280_pressure;Samples;Min_cycle;Max_cycle;Signal;HPM_P1;HPM_P2
2022/04/26 03:37:32;;;;;;;2.30;1.63;;;21.90;40.60;;;;;;4939270;29;20059;-49
2022/04/26 03:39:59;;;;;;;2.60;1.90;;;21.90;40.60;;;;;;4940286;29;20051;-49
2022/04/26 03:42:26;;;;;;;1.67;1.05;;;21.90;40.50;;;;;;4947594;29;20061;-49
2022/04/26 03:44:53;;;;;;;3.13;1.98;;;21.90;40.50;;;;;;4945849;29;20051;-48
2022/04/26 03:47:20;;;;;;;4.97;2.08;;;21.90;40.50;;;;;;4945777;29;20055;-49
2022/04/26 03:49:49;;;;;;;3.63;1.55;;;21.90;40.60;;;;;;4945679;29;20424;-50
2022/04/26 03:52:16;;;;;;;1.90;1.75;;;21.90;40.70;;;;;;4945831;29;20054;-51
2022/04/26 03:54:43;;;;;;;3.40;2.03;;;21.90;40.70;;;;;;4964425;28;20155;-53
2022/04/26 03:57:10;;;;;;;4.70;1.80;;;21.90;40.70;;;;;;4999867;28;20115;-49
2022/04/26 03:59:37;;;;;;;7.57;2.13;;;21.80;40.60;;;;;;5046045;28;20723;-52
2022/04/26 04:02:05;;;;;;;2.72;2.10;;;21.90;40.60;;;;;;5045558;28;20151;-53
2022/04/26 04:04:32;;;;;;;2.15;1.75;;;21.80;40.60;;;;;;5045985;28;20040;-50
2022/04/26 04:07:00;;;;;;;2.03;1.40;;;21.80;40.60;;;;;;5045148;28;20068;-49
2022/04/26 04:09:27;;;;;;;2.30;2.03;;;21.80;40.60;;;;;;5046795;28;20090;-53
2022/04/26 04:11:54;;;;;;;2.30;2.08;;;21.80;40.60;;;;;;5046148;28;20041;-55
2022/04/26 04:14:21;;;;;;;3.95;2.78;;;21.80;40.50;;;;;;5045893;28;20033;-53
2022/04/26 04:16:48;;;;;;;4.70;2.17;;;21.80;40.50;;;;;;5044003;28;20045;-54
2022/04/26 04:19:18;;;;;;;4.63;3.00;;;21.80;40.50;;;;;;5045984;28;20037;-55
2022/04/26 04:21:46;;;;;;;3.85;1.98;;;21.80;40.50;;;;;;5045918;28;20049;-53
2022/04/26 04:24:16;;;;;;;4.38;2.60;;;21.80;40.60;;;;;;5046880;28;20541;-53
2022/04/26 04:26:43;;;;;;;3.15;2.03;;;21.80;40.60;;;;;;5045079;28;20124;-55
2022/04/26 04:29:10;;;;;;;4.15;2.97;;;21.80;40.60;;;;;;5042859;28;20037;-55
2022/04/26 04:31:38;;;;;;;3.42;2.38;;;21.80;40.60;;;;;;5046063;28;20407;-51
2022/04/26 04:34:05;;;;;;;5.13;2.03;;;21.80;40.60;;;;;;5045454;28;20445;-51
2022/04/26 04:36:32;;;;;;;3.03;2.05;;;21.80;40.60;;;;;;5045981;28;20058;-54
2022/04/26 04:38:59;;;;;;;2.70;2.50;;;21.80;40.60;;;;;;5046141;28;20088;-53
2022/04/26 04:41:28;;;;;;;4.55;2.50;;;21.80;40.50;;;;;;5045172;28;20041;-55
2022/04/26 04:43:55;;;;;;;2.60;2.42;;;21.80;40.50;;;;;;5044569;28;20060;-55
2022/04/26 04:46:22;;;;;;;3.17;2.38;;;21.80;40.50;;;;;;5044642;28;20123;-54
2022/04/26 04:48:49;;;;;;;5.70;3.20;;;21.80;40.40;;;;;;5043581;28;20045;-54
2022/04/26 04:51:16;;;;;;;6.43;2.38;;;21.80;40.30;;;;;;5046667;28;20656;-54
2022/04/26 04:53:43;;;;;;;7.88;2.45;;;21.70;40.40;;;;;;5043608;28;20052;-54
2022/04/26 04:56:10;;;;;;;3.03;1.88;;;21.70;41.10;;;;;;5043741;28;20524;-53
2022/04/26 04:58:39;;;;;;;2.95;1.88;;;21.70;40.50;;;;;;5045015;28;20044;-54
2022/04/26 05:01:06;;;;;;;5.03;2.97;;;21.80;40.50;;;;;;5044596;28;20082;-49
2022/04/26 05:03:33;;;;;;;4.43;2.65;;;21.70;40.50;;;;;;5045715;28;20044;-52
2022/04/26 05:06:01;;;;;;;5.22;2.20;;;21.80;40.50;;;;;;5045485;28;20115;-56
2022/04/26 05:08:28;;;;;;;5.38;1.92;;;21.80;40.50;;;;;;5044863;28;20041;-56
2022/04/26 05:10:55;;;;;;;1.98;1.73;;;21.70;40.50;;;;;;5045022;28;20506;-52
2022/04/26 05:13:22;;;;;;;5.57;2.70;;;21.70;40.50;;;;;;5044401;28;20029;-53
2022/04/26 05:15:51;;;;;;;4.38;2.85;;;21.70;40.40;;;;;;5044073;28;20080;-54
2022/04/26 05:18:18;;;;;;;2.03;1.92;;;21.80;40.40;;;;;;5046237;28;20402;-51
2022/04/26 05:20:45;;;;;;;6.55;2.75;;;21.70;40.30;;;;;;5043574;28;20048;-53
2022/04/26 05:25:57;;;;;;;4.78;3.28;;;21.70;40.20;;;;;;5044868;28;20052;-53
2022/04/26 05:28:24;;;;;;;10.13;2.47;;;21.70;40.30;;;;;;5045068;28;20049;-53
2022/04/26 05:30:54;;;;;;;3.00;2.05;;;21.70;40.30;;;;;;5044712;28;20124;-51
2022/04/26 05:33:21;;;;;;;2.53;2.20;;;21.70;40.30;;;;;;5046094;28;20048;-51
2022/04/26 05:35:49;;;;;;;5.00;2.28;;;21.70;40.30;;;;;;5043340;28;20041;-55
2022/04/26 05:38:16;;;;;;;4.20;2.08;;;21.70;40.30;;;;;;5041006;28;20045;-50
2022/04/26 05:40:43;;;;;;;7.30;2.28;;;21.70;40.30;;;;;;5043432;28;20071;-52
2022/04/26 05:43:10;;;;;;;4.95;1.83;;;21.70;40.20;;;;;;5044781;28;20043;-50
2022/04/26 05:45:37;;;;;;;2.53;2.03;;;21.70;40.20;;;;;;5045649;28;20502;-51
2022/04/26 05:48:07;;;;;;;6.43;1.90;;;21.70;40.20;;;;;;5046161;28;20045;-51
2022/04/26 05:50:34;;;;;;;4.60;2.28;;;21.70;40.20;;;;;;5041041;28;20133;-52
2022/04/26 05:53:01;;;;;;;2.58;2.15;;;21.70;40.20;;;;;;5039772;28;20042;-54
2022/04/26 05:55:29;;;;;;;3.10;1.98;;;21.70;40.00;;;;;;5043410;28;20037;-52
2022/04/26 05:57:56;;;;;;;2.92;2.10;;;21.70;40.00;;;;;;5041563;28;20041;-52
2022/04/26 06:00:24;;;;;;;5.28;2.80;;;21.70;40.00;;;;;;5046312;28;20076;-55
2022/04/26 06:02:51;;;;;;;3.50;3.17;;;21.70;40.10;;;;;;5047247;28;20075;-53
2022/04/26 06:05:19;;;;;;;8.60;3.92;;;21.70;40.00;;;;;;5047348;28;20076;-53
2022/04/26 06:07:46;;;;;;;4.00;2.58;;;21.70;40.00;;;;;;5047580;28;20044;-55
2022/04/26 06:10:14;;;;;;;6.93;2.97;;;21.80;40.00;;;;;;5048058;28;20102;-53
2022/04/26 06:12:44;;;;;;;7.18;2.90;;;21.70;40.60;;;;;;5046158;28;20053;-53
2022/04/26 06:15:12;;;;;;;5.50;3.22;;;21.70;40.00;;;;;;5048054;28;20049;-54
2022/04/26 06:17:39;;;;;;;4.63;3.17;;;21.80;40.00;;;;;;5046386;28;20194;-52
2022/04/26 06:20:07;;;;;;;4.00;3.25;;;21.80;40.00;;;;;;5047383;28;20128;-55
2022/04/26 06:22:36;;;;;;;6.47;4.88;;;21.80;40.00;;;;;;5048164;28;20494;-51
2022/04/26 06:25:04;;;;;;;8.23;4.70;;;21.80;39.90;;;;;;5046663;28;20140;-53
2022/04/26 06:27:32;;;;;;;9.32;5.25;;;21.80;39.80;;;;;;5045182;28;20098;-54
2022/04/26 06:29:59;;;;;;;7.90;6.28;;;21.90;39.80;;;;;;5042116;28;20120;-53
2022/04/26 06:32:28;;;;;;;9.95;5.72;;;21.90;39.70;;;;;;5047339;28;20564;-56
2022/04/26 06:34:56;;;;;;;6.95;5.47;;;21.90;39.70;;;;;;5025780;28;20044;-55
2022/04/26 06:37:23;;;;;;;9.10;5.93;;;21.90;39.70;;;;;;5041122;28;20041;-51
2022/04/26 06:39:53;;;;;;;9.63;7.40;;;21.90;39.80;;;;;;5041908;28;20076;-52
2022/04/26 06:42:20;;;;;;;8.50;7.40;;;22.00;39.80;;;;;;5048617;28;20489;-51
2022/04/26 06:44:47;;;;;;;14.80;7.43;;;22.00;39.80;;;;;;5042681;28;20064;-56
2022/04/26 06:47:14;;;;;;;8.57;7.30;;;22.00;39.80;;;;;;5044558;28;20041;-52
2022/04/26 06:49:42;;;;;;;12.35;7.78;;;22.10;39.80;;;;;;5044270;28;20549;-50
2022/04/26 06:52:09;;;;;;;10.95;6.40;;;22.10;40.00;;;;;;5043313;28;20047;-56
2022/04/26 06:54:36;;;;;;;13.20;5.82;;;22.10;40.10;;;;;;5043571;28;20116;-57
2022/04/26 06:57:05;;;;;;;10.23;6.15;;;22.20;40.40;;;;;;5047610;28;20114;-54
2022/04/26 06:59:32;;;;;;;7.68;4.97;;;22.30;40.50;;;;;;5046856;28;20847;-58
2022/04/26 07:01:59;;;;;;;10.75;4.95;;;22.40;40.50;;;;;;5046519;28;20049;-57
2022/04/26 07:04:26;;;;;;;7.15;4.43;;;22.50;40.50;;;;;;5047194;28;20047;-56
2022/04/26 07:06:53;;;;;;;7.63;4.85;;;22.60;40.40;;;;;;5047255;28;20486;-55
2022/04/26 07:09:20;;;;;;;7.65;3.40;;;22.70;40.30;;;;;;5049008;28;20151;-55
2022/04/26 07:11:47;;;;;;;7.40;4.28;;;22.80;40.20;;;;;;5046219;28;20045;-54
2022/04/26 07:14:15;;;;;;;6.10;3.72;;;22.80;40.00;;;;;;5047032;28;20090;-57
2022/04/26 07:16:42;;;;;;;5.30;3.42;;;22.90;39.90;;;;;;5046832;28;20045;-55
2022/04/26 07:19:09;;;;;;;4.50;2.28;;;23.00;39.80;;;;;;5046481;28;20037;-56
2022/04/26 07:21:36;;;;;;;5.38;2.63;;;23.00;39.70;;;;;;5047580;28;20060;-55
2022/04/26 07:24:04;;;;;;;3.75;2.97;;;23.10;39.60;;;;;;5047431;28;20128;-56
2022/04/26 07:26:31;;;;;;;3.83;3.45;;;23.10;39.40;;;;;;5047062;28;20059;-58
2022/04/26 07:28:58;;;;;;;4.57;2.72;;;23.20;39.40;;;;;;5047199;28;20033;-54
2022/04/26 07:31:26;;;;;;;3.55;2.33;;;23.20;39.20;;;;;;5047171;28;20505;-53
2022/04/26 07:36:38;;;;;;;6.70;3.38;;;23.30;39.00;;;;;;5044102;28;20478;-57
2022/04/26 07:39:06;;;;;;;2.50;2.25;;;23.40;38.90;;;;;;5048181;28;20067;-53
2022/04/26 07:41:33;;;;;;;3.40;3.10;;;23.40;38.80;;;;;;5046920;28;20055;-56
2022/04/26 07:44:00;;;;;;;3.53;3.13;;;23.50;38.80;;;;;;5046409;28;20107;-57
2022/04/26 07:46:29;;;;;;;3.55;2.60;;;23.50;38.70;;;;;;5046727;28;20056;-55
2022/04/26 07:48:56;;;;;;;3.05;2.85;;;23.60;38.60;;;;;;5045522;28;20429;-55
2022/04/26 07:51:23;;;;;;;3.15;2.78;;;23.70;38.60;;;;;;5048321;28;20122;-55
2022/04/26 07:53:50;;;;;;;2.67;2.42;;;23.70;38.40;;;;;;5046390;28;20128;-57
2022/04/26 07:56:18;;;;;;;3.20;2.90;;;23.70;38.30;;;;;;5045422;28;20437;-51
2022/04/26 07:58:45;;;;;;;2.97;2.22;;;23.90;38.30;;;;;;5046372;28;20049;-56
2022/04/26 08:01:12;;;;;;;3.30;3.10;;;23.90;38.20;;;;;;5045719;28;20070;-56
2022/04/26 08:03:40;;;;;;;3.15;2.88;;;23.90;38.10;;;;;;5046975;28;20045;-57
2022/04/26 08:06:07;;;;;;;3.83;2.22;;;23.90;38.00;;;;;;5047745;28;20711;-56
2022/04/26 08:08:34;;;;;;;2.55;2.35;;;24.00;37.90;;;;;;5045934;28;20044;-57
2022/04/26 08:11:01;;;;;;;2.42;2.08;;;24.00;37.80;;;;;;5045513;28;20040;-55
2022/04/26 08:13:28;;;;;;;4.28;2.53;;;24.10;37.80;;;;;;5046593;28;20099;-54
2022/04/26 08:15:56;;;;;;;7.15;2.30;;;24.00;37.70;;;;;;5044634;28;20671;-55
2022/04/26 08:18:23;;;;;;;4.15;2.95;;;24.10;37.70;;;;;;5047337;28;20041;-55
2022/04/26 08:20:52;;;;;;;2.45;2.35;;;24.10;37.60;;;;;;5046078;28;20478;-55
2022/04/26 08:23:19;;;;;;;5.45;2.95;;;24.10;37.60;;;;;;5045513;28;20041;-55
2022/04/26 08:28:30;;;;;;;2.35;2.20;;;24.10;37.50;;;;;;5046211;28;20045;-55
2022/04/26 08:30:58;;;;;;;2.38;2.28;;;24.20;37.50;;;;;;5045698;28;20444;-54
2022/04/26 08:33:25;;;;;;;2.60;2.30;;;24.20;37.40;;;;;;5048047;28;20040;-49
2022/04/26 08:35:54;;;;;;;2.95;2.75;;;24.20;37.30;;;;;;5045805;28;20049;-52
2022/04/26 08:38:21;;;;;;;2.85;2.65;;;24.30;37.30;;;;;;5045892;28;20126;-54
2022/04/26 08:40:48;;;;;;;5.80;2.65;;;24.30;37.20;;;;;;5046248;28;20052;-53
2022/04/26 08:43:15;;;;;;;2.67;2.47;;;24.40;37.20;;;;;;5045648;28;20477;-54
2022/04/26 08:45:45;;;;;;;2.60;2.40;;;24.40;37.10;;;;;;5045677;28;20051;-55
2022/04/26 08:51:03;;;;;;;3.28;2.63;;;24.40;36.90;;;;;;5046265;28;20624;-54
2022/04/26 08:53:32;;;;;;;3.95;2.65;;;24.50;36.90;;;;;;5045378;28;20449;-56
2022/04/26 08:56:01;;;;;;;2.70;2.50;;;24.50;36.90;;;;;;5044358;28;20033;-55
2022/04/26 08:58:31;;;;;;;4.00;3.33;;;24.50;36.80;;;;;;5045885;28;20037;-54
2022/04/26 09:01:09;;;;;;;3.63;2.50;;;24.60;36.70;;;;;;5045441;28;20053;-55
2022/04/26 09:03:38;;;;;;;3.92;1.75;;;24.60;36.70;;;;;;5046225;28;20153;-56
2022/04/26 09:06:09;;;;;;;3.42;3.15;;;24.60;36.60;;;;;;5046601;28;20132;-53
2022/04/26 09:08:37;;;;;;;3.55;2.85;;;24.70;36.50;;;;;;5045174;28;20509;-54
2022/04/26 09:11:05;;;;;;;2.83;2.25;;;24.70;36.40;;;;;;5045473;28;20033;-54
2022/04/26 09:13:40;;;;;;;6.43;2.53;;;24.70;36.40;;;;;;5045157;28;20111;-53
2022/04/26 09:16:20;;;;;;;2.20;2.10;;;24.80;36.40;;;;;;5045320;28;20037;-55
2022/04/26 09:18:56;;;;;;;2.20;2.08;;;24.80;36.30;;;;;;5045159;28;20056;-55
2022/04/26 09:21:26;;;;;;;3.08;2.83;;;24.80;36.30;;;;;;5047248;28;20041;-54
2022/04/26 09:23:57;;;;;;;2.83;2.20;;;24.80;36.20;;;;;;5045094;28;20052;-54
2022/04/26 09:26:25;;;;;;;3.22;2.92;;;24.80;36.80;;;;;;5045256;28;20036;-54
2022/04/26 09:28:52;;;;;;;3.17;2.70;;;24.90;36.20;;;;;;5045202;28;20045;-52
2022/04/26 09:31:21;;;;;;;3.38;2.67;;;24.90;36.20;;;;;;5027812;28;20044;-53
2022/04/26 09:33:51;;;;;;;3.13;2.85;;;24.90;36.10;;;;;;5045500;28;20040;-56
2022/04/26 09:36:21;;;;;;;4.20;3.20;;;24.90;36.10;;;;;;5050469;28;20136;-56
2022/04/26 09:38:55;;;;;;;2.92;2.67;;;24.90;36.00;;;;;;5049278;28;20060;-56
2022/04/26 09:41:22;;;;;;;3.53;3.22;;;25.00;36.00;;;;;;5044382;28;20044;-55
2022/04/26 09:44:02;;;;;;;3.20;2.42;;;25.00;35.90;;;;;;5042274;28;20418;-55
2022/04/26 09:46:47;;;;;;;3.42;3.13;;;25.10;35.90;;;;;;5049177;28;20041;-55
2022/04/26 09:49:18;;;;;;;3.40;2.58;;;25.10;35.90;;;;;;5046382;28;20049;-53
2022/04/26 09:51:47;;;;;;;3.08;2.67;;;25.00;35.80;;;;;;5049153;28;20080;-55
2022/04/26 09:54:16;;;;;;;3.35;3.10;;;25.10;35.90;;;;;;5049027;28;20040;-51
2022/04/26 09:56:46;;;;;;;2.95;2.72;;;25.10;35.90;;;;;;5029604;28;20132;-53
2022/04/26 09:59:16;;;;;;;4.32;3.00;;;25.10;35.80;;;;;;5048285;28;20533;-54
2022/04/26 10:01:46;;;;;;;3.88;3.58;;;25.10;35.80;;;;;;5048666;28;20049;-55
2022/04/26 10:04:17;;;;;;;3.00;2.80;;;25.10;35.70;;;;;;5049284;28;20120;-56
2022/04/26 10:06:46;;;;;;;3.65;3.35;;;25.20;35.80;;;;;;5049015;28;20484;-56
2022/04/26 10:09:16;;;;;;;5.93;3.22;;;25.10;35.70;;;;;;5049629;28;20045;-54
2022/04/26 10:11:43;;;;;;;5.00;3.17;;;25.20;35.70;;;;;;5047694;28;20141;-56
2022/04/26 10:14:12;;;;;;;4.80;3.58;;;25.20;35.70;;;;;;5048917;28;20069;-56
2022/04/26 10:16:40;;;;;;;5.25;4.15;;;25.20;35.70;;;;;;5029313;28;20049;-56
2022/04/26 10:19:08;;;;;;;5.32;4.35;;;25.20;35.70;;;;;;5048455;28;20057;-56
2022/04/26 10:21:49;;;;;;;4.43;3.60;;;25.20;35.60;;;;;;5049363;28;20045;-52
2022/04/26 10:24:22;;;;;;;3.53;3.22;;;25.30;35.60;;;;;;5049022;28;20041;-51
2022/04/26 10:26:51;;;;;;;5.43;3.50;;;25.20;35.50;;;;;;5021840;28;20052;-53
2022/04/26 10:29:24;;;;;;;3.55;3.25;;;25.30;35.60;;;;;;5048359;28;20044;-48
2022/04/26 10:32:00;;;;;;;5.10;3.50;;;25.30;35.50;;;;;;5046277;28;20064;-53
2022/04/26 10:34:34;;;;;;;3.63;3.03;;;25.30;35.50;;;;;;5048327;28;20088;-54
2022/04/26 10:37:23;;;;;;;3.15;2.85;;;25.30;35.40;;;;;;5046238;28;20037;-53
2022/04/26 10:40:01;;;;;;;3.72;3.05;;;25.30;35.40;;;;;;5046401;28;20891;-56
2022/04/26 10:42:30;;;;;;;3.85;3.15;;;25.30;35.30;;;;;;5045246;28;20041;-53
2022/04/26 10:44:59;;;;;;;3.78;3.00;;;25.30;35.30;;;;;;5048624;28;20049;-55
2022/04/26 10:47:30;;;;;;;3.78;3.47;;;25.30;35.30;;;;;;5046916;28;20052;-55
2022/04/26 10:49:59;;;;;;;4.53;3.67;;;25.30;35.30;;;;;;5047976;28;20043;-55
2022/04/26 10:52:34;;;;;;;4.78;3.80;;;25.30;35.20;;;;;;5047673;28;20045;-53
2022/04/26 10:55:08;;;;;;;4.55;3.60;;;25.30;35.20;;;;;;5043901;28;20045;-51
2022/04/26 10:57:37;;;;;;;3.50;3.20;;;25.40;35.30;;;;;;5045901;28;20048;-53
2022/04/26 11:00:06;;;;;;;3.55;2.90;;;25.40;35.20;;;;;;5048980;28;20037;-52
2022/04/26 11:02:35;;;;;;;4.43;4.13;;;25.40;35.20;;;;;;5047585;28;20133;-53
2022/04/26 11:05:04;;;;;;;3.38;3.10;;;25.40;35.20;;;;;;5047731;28;20565;-53
2022/04/26 11:07:32;;;;;;;3.08;2.88;;;25.50;35.20;;;;;;5047631;28;20037;-51
2022/04/26 11:10:00;;;;;;;4.68;3.95;;;25.50;35.20;;;;;;5047260;28;20067;-56
2022/04/26 11:12:30;;;;;;;2.75;2.55;;;25.50;35.10;;;;;;5049347;28;20049;-53
2022/04/26 11:14:59;;;;;;;3.80;3.50;;;25.50;35.10;;;;;;5015069;28;20053;-51
2022/04/26 11:17:27;;;;;;;3.33;2.95;;;25.50;35.10;;;;;;5045650;28;20084;-55
2022/04/26 11:19:56;;;;;;;3.05;2.80;;;25.60;35.10;;;;;;5046999;28;20144;-56
2022/04/26 11:22:25;;;;;;;2.92;2.65;;;25.60;35.10;;;;;;5047092;28;20056;-53
2022/04/26 11:28:02;;;;;;;5.13;2.95;;;25.60;34.90;;;;;;5047408;28;20053;-54
2022/04/26 11:30:39;;;;;;;3.47;3.15;;;25.60;35.00;;;;;;5046744;28;20100;-56
2022/04/26 11:33:08;;;;;;;3.83;3.53;;;25.60;34.90;;;;;;5023392;28;20098;-55
2022/04/26 11:35:36;;;;;;;3.75;3.45;;;25.60;34.90;;;;;;5047615;28;20035;-56
2022/04/26 11:38:12;;;;;;;3.35;3.03;;;25.70;35.00;;;;;;5046488;28;20041;-54
2022/04/26 11:40:41;;;;;;;;;;;25.70;34.90;;;;;;5047046;28;20050;-55
2022/04/26 11:43:12;;;;;;;4.00;2.40;;;25.70;35.00;;;;;;5047302;28;19924;-51
2022/04/26 11:45:41;;;;;;;4.25;3.47;;;25.70;35.00;;;;;;5047347;28;20045;-52
2022/04/26 11:48:10;;;;;;;3.25;3.03;;;25.70;34.90;;;;;;5048129;28;20055;-54
2022/04/26 11:50:37;;;;;;;2.55;2.40;;;25.70;34.90;;;;;;5043684;28;20124;-57
2022/04/26 11:53:06;;;;;;;3.90;2.63;;;25.70;34.80;;;;;;5046769;28;20094;-55
2022/04/26 11:55:35;;;;;;;3.22;2.95;;;25.70;34.70;;;;;;5022578;28;20065;-56
2022/04/26 11:58:16;;;;;;;4.13;2.97;;;25.80;34.80;;;;;;5012274;28;20033;-55
2022/04/26 12:01:07;;;;;;;4.20;2.47;;;25.80;34.70;;;;;;5044623;28;20037;-55
2022/04/26 12:03:37;;;;;;;2.47;2.30;;;25.80;34.70;;;;;;5042105;28;20417;-55
2022/04/26 12:06:05;;;;;;;3.25;2.95;;;25.80;34.70;;;;;;5046840;28;20053;-56
2022/04/26 12:08:36;;;;;;;2.60;2.40;;;25.80;34.70;;;;;;5046031;28;20048;-52
2022/04/26 12:11:20;;;;;;;3.30;2.90;;;25.80;34.60;;;;;;5046358;28;20120;-56
2022/04/26 12:14:00;;;;;;;4.60;2.50;;;25.90;34.60;;;;;;5039648;28;20056;-53
2022/04/26 12:16:29;;;;;;;2.60;1.92;;;25.90;34.60;;;;;;5045712;28;20103;-53
2022/04/26 12:18:57;;;;;;;14.02;5.07;;;25.80;34.60;;;;;;5042888;28;20052;-67
2022/04/26 12:21:27;;;;;;;4.55;4.10;;;25.90;34.60;;;;;;5038640;28;20118;-61
2022/04/26 12:24:11;;;;;;;5.15;3.45;;;25.90;34.80;;;;;;5041282;28;20460;-62
2022/04/26 12:26:50;;;;;;;6.97;3.20;;;25.90;34.90;;;;;;5040986;28;20416;-67
2022/04/26 12:29:19;;;;;;;3.10;2.90;;;25.90;35.00;;;;;;5036836;28;20514;-71
2022/04/26 12:31:49;;;;;;;6.47;3.60;;;26.00;34.90;;;;;;5034310;28;20433;-69
2022/04/26 12:34:18;;;;;;;3.42;3.13;;;26.10;34.90;;;;;;5023479;28;20476;-61
2022/04/26 12:36:56;;;;;;;4.25;3.70;;;26.20;34.90;;;;;;5039808;28;20516;-56
2022/04/26 12:39:26;;;;;;;6.75;3.22;;;26.30;34.70;;;;;;5047357;28;20060;-54
2022/04/26 12:41:56;;;;;;;3.00;2.38;;;26.40;34.70;;;;;;5043834;28;20128;-61
2022/04/26 12:44:25;;;;;;;4.68;2.53;;;26.50;34.90;;;;;;5047134;28;20143;-61
2022/04/26 12:52:45;;;;;;;2.83;2.72;;;27.00;34.80;;;;;;5017244;28;20048;-58
2022/04/26 12:55:13;;;;;;;3.63;1.90;;;27.10;34.70;;;;;;5041469;28;20052;-60
2022/04/26 12:57:50;;;;;;;2.50;2.30;;;27.20;34.60;;;;;;5048996;28;20049;-59
2022/04/26 13:00:20;;;;;;;2.08;1.90;;;27.30;34.40;;;;;;5016479;28;20148;-63
2022/04/26 13:02:48;;;;;;;3.47;2.63;;;27.40;34.40;;;;;;5026435;28;20129;-69
2022/04/26 13:05:16;;;;;;;2.10;1.88;;;27.50;34.80;;;;;;5042216;28;20800;-61
2022/04/26 13:07:43;;;;;;;3.78;1.58;;;27.70;34.30;;;;;;5048162;28;20045;-63
2022/04/26 13:10:11;;;;;;;1.67;1.45;;;27.80;34.30;;;;;;5042947;28;20037;-61
2022/04/26 13:12:38;;;;;;;1.80;1.45;;;27.90;34.10;;;;;;5049145;28;20193;-63
2022/04/26 13:15:08;;;;;;;1.92;1.83;;;28.00;34.00;;;;;;5046944;28;20049;-63
2022/04/26 13:17:36;;;;;;;1.60;1.40;;;28.10;33.90;;;;;;5047003;28;20041;-65
2022/04/26 13:20:05;;;;;;;3.45;1.02;;;28.20;33.80;;;;;;5045615;28;20076;-61
2022/04/26 13:22:35;;;;;;;1.45;1.00;;;28.30;33.80;;;;;;5033626;28;20037;-73
2022/04/26 13:25:03;;;;;;;1.55;1.20;;;28.30;33.80;;;;;;5050584;28;20037;-62
2022/04/26 13:27:30;;;;;;;0.98;0.98;;;28.40;33.70;;;;;;5046397;28;20049;-68
2022/04/26 13:29:57;;;;;;;1.88;1.08;;;28.50;33.70;;;;;;5049640;28;20068;-62
2022/04/26 13:32:25;;;;;;;1.88;1.77;;;28.60;33.70;;;;;;5045508;28;20528;-62
2022/04/26 13:34:53;;;;;;;1.45;0.75;;;28.70;33.60;;;;;;5049713;28;20041;-64
2022/04/26 13:37:22;;;;;;;2.17;1.02;;;28.70;33.40;;;;;;5046858;28;20081;-65
2022/04/26 13:39:50;;;;;;;2.08;0.60;;;28.80;33.40;;;;;;5016538;28;20052;-74
2022/04/26 13:42:19;;;;;;;2.20;0.95;;;28.80;33.30;;;;;;5049887;28;20045;-67
2022/04/26 13:44:46;;;;;;;1.17;0.85;;;28.90;33.20;;;;;;5050798;28;20068;-72
2022/04/26 13:47:14;;;;;;;2.17;0.52;;;28.90;33.10;;;;;;5047790;28;20065;-64
2022/04/26 13:49:42;;;;;;;1.02;0.60;;;29.00;33.60;;;;;;5049838;28;20485;-64
2022/04/26 13:52:10;;;;;;;1.50;0.65;;;29.00;33.00;;;;;;5042539;28;20052;-57
2022/04/26 13:54:38;;;;;;;2.92;0.40;;;29.10;33.00;;;;;;5048238;28;20041;-67
2022/04/26 13:57:06;;;;;;;3.42;0.73;;;29.10;33.20;;;;;;5053586;28;20083;-66
2022/04/26 13:59:33;;;;;;;0.88;0.77;;;29.20;33.10;;;;;;5031094;28;20057;-63
2022/04/26 14:02:00;;;;;;;0.60;0.60;;;29.20;33.00;;;;;;5046385;28;20049;-64
2022/04/26 14:04:28;;;;;;;0.75;0.75;;;29.20;32.90;;;;;;5049427;28;20037;-62
2022/04/26 14:06:56;;;;;;;0.75;0.38;;;29.20;32.90;;;;;;5045176;28;20053;-64
2022/04/26 14:09:25;;;;;;;0.45;0.43;;;29.20;32.80;;;;;;5045390;28;20127;-64
2022/04/26 14:11:55;;;;;;;2.75;0.60;;;29.30;32.80;;;;;;5025512;28;20052;-58
2022/04/26 14:22:40;;;;;;;2.30;0.70;;;29.40;33.50;;;;;;5004255;28;20054;-66
2022/04/26 14:25:11;;;;;;;1.05;0.47;;;29.50;33.00;;;;;;4991639;28;20053;-59
2022/04/26 14:27:40;;;;;;;1.65;0.95;;;29.50;33.00;;;;;;5006064;28;20425;-62
2022/04/26 14:30:11;;;;;;;0.73;0.20;;;29.50;33.00;;;;;;5005720;28;20072;-60
2022/04/26 14:32:38;;;;;;;2.58;0.30;;;29.50;32.90;;;;;;5005556;28;20086;-60
2022/04/26 14:35:07;;;;;;;1.65;0.35;;;29.50;32.90;;;;;;5006109;28;20049;-61
2022/04/26 14:37:34;;;;;;;2.65;0.40;;;29.50;32.90;;;;;;5004353;28;20065;-61
2022/04/26 14:40:01;;;;;;;1.05;0.45;;;29.50;33.00;;;;;;5003975;28;20064;-59
2022/04/26 14:42:30;;;;;;;3.33;0.20;;;29.50;33.10;;;;;;5009263;28;20058;-61
2022/04/26 14:44:57;;;;;;;0.82;0.47;;;29.50;33.10;;;;;;5006241;28;20056;-60
2022/04/26 14:47:26;;;;;;;0.75;0.22;;;29.60;33.20;;;;;;5003296;28;20423;-59
2022/04/26 14:49:54;;;;;;;1.08;0.43;;;29.60;33.20;;;;;;5005579;28;20050;-57
2022/04/26 14:52:22;;;;;;;0.30;0.20;;;29.60;33.20;;;;;;5005724;28;20140;-56
2022/04/26 14:54:49;;;;;;;0.68;0.40;;;29.60;33.10;;;;;;4989582;28;20054;-60
2022/04/26 14:57:17;;;;;;;0.60;0.30;;;29.60;33.10;;;;;;5007099;28;20046;-60
2022/04/26 14:59:47;;;;;;;1.38;0.30;;;29.60;33.10;;;;;;5025051;28;20056;-63
2022/04/26 15:02:16;;;;;;;1.67;0.68;;;29.60;33.10;;;;;;5023817;28;20451;-56
2022/04/26 15:04:44;;;;;;;4.65;0.38;;;29.60;33.10;;;;;;5025592;28;20050;-61
2022/04/26 15:07:12;;;;;;;0.85;0.30;;;29.60;33.20;;;;;;5021513;28;20053;-55
2022/04/26 15:09:51;;;;;;;2.85;0.35;;;29.60;33.20;;;;;;5022560;28;20049;-56
2022/04/26 15:17:52;;;;;;;0.73;0.20;;;29.60;33.30;;;;;;5001092;28;20058;-57
2022/04/26 15:20:19;;;;;;;0.17;0.15;;;29.60;33.10;;;;;;5019774;28;20132;-58
2022/04/26 15:22:47;;;;;;;5.40;0.30;;;29.60;33.10;;;;;;5023988;28;20053;-57
2022/04/26 15:25:15;;;;;;;4.95;0.20;;;29.60;33.10;;;;;;5029513;28;20052;-77
2022/04/26 15:27:42;;;;;;;3.70;0.88;;;29.60;33.20;;;;;;5028678;28;20056;-67
2022/04/26 15:30:13;;;;;;;0.77;0.75;;;29.60;30.80;;;;;;5023094;28;20134;-66
2022/04/26 15:32:40;;;;;;;2.25;0.68;;;29.40;29.60;;;;;;5021082;28;20122;-60
2022/04/26 15:35:10;;;;;;;1.63;0.77;;;29.10;29.10;;;;;;5025527;28;20037;-61
2022/04/26 15:37:37;;;;;;;5.82;0.80;;;28.90;28.90;;;;;;5025929;28;20495;-65
2022/04/26 15:40:05;;;;;;;1.33;1.10;;;28.70;28.70;;;;;;5026503;28;20080;-64
2022/04/26 15:42:33;;;;;;;12.55;1.13;;;28.40;28.50;;;;;;5026215;28;21009;-62
2022/04/26 15:45:01;;;;;;;1.25;0.77;;;28.30;28.60;;;;;;5022056;28;20045;-63
2022/04/26 15:47:30;;;;;;;3.47;0.68;;;28.10;28.40;;;;;;5021842;28;20050;-64
2022/04/26 15:49:58;;;;;;;4.90;0.70;;;28.00;28.50;;;;;;5025965;28;20038;-69
2022/04/26 15:52:26;;;;;;;2.10;0.65;;;27.80;28.60;;;;;;5013600;28;20049;-72
2022/04/26 15:54:54;;;;;;;0.88;0.77;;;27.80;28.60;;;;;;5026110;28;20042;-58
2022/04/26 15:57:21;;;;;;;1.40;1.08;;;27.80;28.60;;;;;;5024582;28;20506;-63
2022/04/26 15:59:48;;;;;;;1.83;0.68;;;27.70;28.00;;;;;;5021448;28;20079;-64
2022/04/26 16:02:16;;;;;;;2.08;1.10;;;27.70;28.10;;;;;;5039132;28;20049;-66
2022/04/26 16:04:45;;;;;;;0.60;0.60;;;27.70;28.10;;;;;;5026283;28;20045;-63
2022/04/26 16:07:12;;;;;;;1.55;1.45;;;27.70;28.10;;;;;;5047697;28;20045;-64
2022/04/26 16:20:39;;;;;;;0.40;0.40;;;27.90;27.40;;;;;;5021746;28;20543;-60
2022/04/26 16:23:07;;;;;;;1.92;1.00;;;27.70;27.20;;;;;;5027535;28;20502;-60
2022/04/26 16:25:34;;;;;;;3.13;1.08;;;27.70;27.30;;;;;;5042672;28;20139;-57
2022/04/26 16:28:03;;;;;;;1.42;0.50;;;27.60;27.40;;;;;;5041091;28;20041;-53
2022/04/26 16:30:31;;;;;;;1.40;0.80;;;27.50;27.50;;;;;;5037887;28;20469;-62
2022/04/26 16:33:01;;;;;;;0.55;0.55;;;27.30;27.40;;;;;;5051436;28;20094;-68
2022/04/26 16:35:29;;;;;;;1.00;0.95;;;27.20;27.40;;;;;;5047240;28;20048;-53
2022/04/26 16:37:58;;;;;;;2.05;0.80;;;27.00;27.50;;;;;;5008610;28;20045;-57
2022/04/26 16:40:26;;;;;;;1.77;0.82;;;27.00;27.70;;;;;;5024951;28;20107;-57
2022/04/26 16:42:53;;;;;;;2.38;1.23;;;26.80;27.70;;;;;;5040450;28;20140;-58
2022/04/26 16:45:20;;;;;;;3.17;0.57;;;26.70;27.90;;;;;;5039679;28;21619;-58
2022/04/26 16:47:49;;;;;;;1.20;1.10;;;26.60;27.90;;;;;;5042908;28;20057;-60
2022/04/26 16:50:16;;;;;;;1.80;0.98;;;26.50;28.00;;;;;;5042479;28;20132;-58
2022/04/26 16:52:46;;;;;;;6.47;1.45;;;26.30;28.00;;;;;;5046868;28;20033;-59
2022/04/26 16:55:14;;;;;;;5.47;0.82;;;26.20;28.10;;;;;;5045141;28;20143;-73
2022/04/26 16:57:42;;;;;;;2.53;1.30;;;26.10;28.20;;;;;;5052589;28;20118;-62
2022/04/26 17:00:10;;;;;;;0.80;0.80;;;25.90;28.30;;;;;;5040889;28;20049;-54
2022/04/26 17:02:37;;;;;;;1.10;0.90;;;25.80;28.40;;;;;;5045176;28;20055;-51
2022/04/26 17:05:05;;;;;;;1.27;0.82;;;25.70;28.40;;;;;;5044617;28;20108;-55
2022/04/26 17:07:33;;;;;;;1.67;0.85;;;25.70;28.50;;;;;;5044920;28;20025;-51
2022/04/26 17:10:00;;;;;;;7.43;1.00;;;25.60;28.20;;;;;;5027047;28;20589;-55
2022/04/26 17:12:30;;;;;;;1.35;0.52;;;25.60;28.00;;;;;;5047421;28;20040;-54
2022/04/26 17:14:57;;;;;;;4.07;1.15;;;25.60;27.80;;;;;;5045052;28;20052;-53
2022/04/26 17:17:27;;;;;;;2.70;0.95;;;25.70;27.70;;;;;;5043677;28;20036;-52